sensor_id;sensor_type;location;lat;lon;timestamp;P1;durP1;ratioP1;P2;durP2;ratioP2
27201;SDS011;14717;46.924;15.474;2022-12-24T00:00:24;20.42;;;10.65;;
27201;SDS011;14717;46.924;15.474;2022-12-24T00:02:49;25.98;;;12.27;;
27201;SDS011;14717;46.924;15.474;2022-12-24T00:05:15;25.17;;;10.48;;
27201;SDS011;14717;46.924;15.474;2022-12-24T00:07:40;23.00;;;11.05;;
27201;SDS011;14717;46.924;15.474;2022-12-24T00:10:06;19.83;;;10.43;;
27201;SDS011;14717;46.924;15.474;2022-12-24T00:12:34;19.58;;;9.68;;
27201;SDS011;14717;46.924;15.474;2022-12-24T00:15:00;20.40;;;10.90;;
27201;SDS011;14717;46.924;15.474;2022-12-24T00:17:25;22.25;;;10.90;;
27201;SDS011;14717;46.924;15.474;2022-12-24T00:19:51;20.25;;;10.10;;
27201;SDS011;14717;46.924;15.474;2022-12-24T00:22:16;21.45;;;10.70;;
27201;SDS011;14717;46.924;15.474;2022-12-24T00:24:41;28.42;;;9.73;;
27201;SDS011;14717;46.924;15.474;2022-12-24T00:27:07;19.65;;;9.82;;
27201;SDS011;14717;46.924;15.474;2022-12-24T00:29:32;15.18;;;8.20;;
27201;SDS011;14717;46.924;15.474;2022-12-24T00:31:58;19.63;;;8.52;;
27201;SDS011;14717;46.924;15.474;2022-12-24T00:34:24;14.88;;;8.13;;
27201;SDS011;14717;46.924;15.474;2022-12-24T00:36:49;15.68;;;7.78;;
27201;SDS011;14717;46.924;15.474;2022-12-24T00:39:15;14.95;;;8.15;;
27201;SDS011;14717;46.924;15.474;2022-12-24T00:41:40;16.65;;;8.00;;
27201;SDS011;14717;46.924;15.474;2022-12-24T00:44:06;18.73;;;9.88;;
27201;SDS011;14717;46.924;15.474;2022-12-24T00:46:36;15.57;;;8.85;;
27201;SDS011;14717;46.924;15.474;2022-12-24T00:49:03;22.08;;;10.20;;
27201;SDS011;14717;46.924;15.474;2022-12-24T00:51:30;16.00;;;9.15;;
27201;SDS011;14717;46.924;15.474;2022-12-24T00:53:56;19.27;;;9.52;;
27201;SDS011;14717;46.924;15.474;2022-12-24T00:56:21;17.02;;;9.48;;
27201;SDS011;14717;46.924;15.474;2022-12-24T00:58:47;21.33;;;9.32;;
27201;SDS011;14717;46.924;15.474;2022-12-24T01:01:13;18.83;;;9.50;;
27201;SDS011;14717;46.924;15.474;2022-12-24T01:03:39;18.83;;;9.23;;
27201;SDS011;14717;46.924;15.474;2022-12-24T01:06:11;15.80;;;8.68;;
27201;SDS011;14717;46.924;15.474;2022-12-24T01:08:39;20.08;;;9.60;;
27201;SDS011;14717;46.924;15.474;2022-12-24T01:11:05;18.60;;;9.60;;
27201;SDS011;14717;46.924;15.474;2022-12-24T01:13:32;18.83;;;9.02;;
27201;SDS011;14717;46.924;15.474;2022-12-24T01:15:59;18.90;;;9.55;;
27201;SDS011;14717;46.924;15.474;2022-12-24T01:18:24;15.75;;;8.60;;
27201;SDS011;14717;46.924;15.474;2022-12-24T01:20:57;17.15;;;8.95;;
27201;SDS011;14717;46.924;15.474;2022-12-24T01:23:25;15.18;;;8.20;;
27201;SDS011;14717;46.924;15.474;2022-12-24T01:25:51;15.40;;;7.85;;
27201;SDS011;14717;46.924;15.474;2022-12-24T01:28:16;14.68;;;7.10;;
27201;SDS011;14717;46.924;15.474;2022-12-24T01:30:41;14.18;;;7.40;;
27201;SDS011;14717;46.924;15.474;2022-12-24T01:33:07;17.92;;;8.02;;
27201;SDS011;14717;46.924;15.474;2022-12-24T01:35:32;17.13;;;7.53;;
27201;SDS011;14717;46.924;15.474;2022-12-24T01:37:58;15.65;;;7.15;;
27201;SDS011;14717;46.924;15.474;2022-12-24T01:40:24;15.07;;;7.65;;
27201;SDS011;14717;46.924;15.474;2022-12-24T01:43:19;12.80;;;6.63;;
27201;SDS011;14717;46.924;15.474;2022-12-24T01:51:01;16.08;;;7.88;;
27201;SDS011;14717;46.924;15.474;2022-12-24T01:53:32;12.70;;;7.45;;
27201;SDS011;14717;46.924;15.474;2022-12-24T01:56:01;13.32;;;6.72;;
27201;SDS011;14717;46.924;15.474;2022-12-24T01:58:27;19.15;;;9.10;;
27201;SDS011;14717;46.924;15.474;2022-12-24T02:00:53;24.40;;;10.10;;
27201;SDS011;14717;46.924;15.474;2022-12-24T02:03:18;17.42;;;9.45;;
27201;SDS011;14717;46.924;15.474;2022-12-24T02:05:46;17.40;;;8.48;;
27201;SDS011;14717;46.924;15.474;2022-12-24T02:08:16;22.55;;;8.90;;
27201;SDS011;14717;46.924;15.474;2022-12-24T02:10:42;16.70;;;9.00;;
27201;SDS011;14717;46.924;15.474;2022-12-24T02:13:09;16.40;;;8.93;;
27201;SDS011;14717;46.924;15.474;2022-12-24T02:18:46;16.70;;;7.65;;
27201;SDS011;14717;46.924;15.474;2022-12-24T02:26:46;14.07;;;7.03;;
27201;SDS011;14717;46.924;15.474;2022-12-24T02:37:32;14.48;;;6.97;;
27201;SDS011;14717;46.924;15.474;2022-12-24T02:42:40;12.80;;;7.05;;
27201;SDS011;14717;46.924;15.474;2022-12-24T02:45:08;15.85;;;7.70;;
27201;SDS011;14717;46.924;15.474;2022-12-24T02:47:38;14.98;;;7.15;;
27201;SDS011;14717;46.924;15.474;2022-12-24T02:50:07;16.52;;;7.88;;
27201;SDS011;14717;46.924;15.474;2022-12-24T02:55:01;15.68;;;7.65;;
27201;SDS011;14717;46.924;15.474;2022-12-24T02:57:35;13.93;;;7.60;;
27201;SDS011;14717;46.924;15.474;2022-12-24T03:00:18;12.38;;;6.72;;
27201;SDS011;14717;46.924;15.474;2022-12-24T03:05:18;14.70;;;7.57;;
27201;SDS011;14717;46.924;15.474;2022-12-24T03:10:26;14.57;;;7.78;;
27201;SDS011;14717;46.924;15.474;2022-12-24T03:13:32;16.25;;;7.32;;
27201;SDS011;14717;46.924;15.474;2022-12-24T03:15:52;15.25;;;7.50;;
27201;SDS011;14717;46.924;15.474;2022-12-24T03:18:22;12.68;;;7.07;;
27201;SDS011;14717;46.924;15.474;2022-12-24T03:20:57;16.33;;;7.80;;
27201;SDS011;14717;46.924;15.474;2022-12-24T03:23:27;13.30;;;7.20;;
27201;SDS011;14717;46.924;15.474;2022-12-24T03:25:53;18.42;;;7.82;;
27201;SDS011;14717;46.924;15.474;2022-12-24T03:28:19;14.98;;;8.02;;
27201;SDS011;14717;46.924;15.474;2022-12-24T03:30:50;15.48;;;7.18;;
27201;SDS011;14717;46.924;15.474;2022-12-24T03:33:15;15.40;;;7.38;;
27201;SDS011;14717;46.924;15.474;2022-12-24T03:35:41;15.38;;;8.27;;
27201;SDS011;14717;46.924;15.474;2022-12-24T03:38:06;12.77;;;7.05;;
27201;SDS011;14717;46.924;15.474;2022-12-24T03:40:31;16.13;;;7.55;;
27201;SDS011;14717;46.924;15.474;2022-12-24T03:42:57;14.38;;;7.18;;
27201;SDS011;14717;46.924;15.474;2022-12-24T03:45:22;16.23;;;7.57;;
27201;SDS011;14717;46.924;15.474;2022-12-24T03:47:48;12.93;;;6.95;;
27201;SDS011;14717;46.924;15.474;2022-12-24T03:50:13;17.70;;;8.10;;
27201;SDS011;14717;46.924;15.474;2022-12-24T03:52:39;17.50;;;7.88;;
27201;SDS011;14717;46.924;15.474;2022-12-24T03:55:04;16.08;;;8.40;;
27201;SDS011;14717;46.924;15.474;2022-12-24T03:57:30;14.65;;;7.63;;
27201;SDS011;14717;46.924;15.474;2022-12-24T03:59:55;16.05;;;8.57;;
27201;SDS011;14717;46.924;15.474;2022-12-24T04:02:20;17.35;;;8.05;;
27201;SDS011;14717;46.924;15.474;2022-12-24T04:04:46;13.15;;;7.35;;
27201;SDS011;14717;46.924;15.474;2022-12-24T04:07:11;15.43;;;7.50;;
27201;SDS011;14717;46.924;15.474;2022-12-24T04:09:36;12.50;;;6.65;;
27201;SDS011;14717;46.924;15.474;2022-12-24T04:12:03;14.18;;;6.68;;
27201;SDS011;14717;46.924;15.474;2022-12-24T04:14:28;14.55;;;7.32;;
27201;SDS011;14717;46.924;15.474;2022-12-24T04:16:54;15.30;;;7.50;;
27201;SDS011;14717;46.924;15.474;2022-12-24T04:19:19;14.57;;;7.03;;
27201;SDS011;14717;46.924;15.474;2022-12-24T04:21:44;15.30;;;7.93;;
27201;SDS011;14717;46.924;15.474;2022-12-24T04:24:10;14.65;;;6.93;;
27201;SDS011;14717;46.924;15.474;2022-12-24T04:26:35;15.45;;;7.43;;
27201;SDS011;14717;46.924;15.474;2022-12-24T04:29:00;14.52;;;6.75;;
27201;SDS011;14717;46.924;15.474;2022-12-24T04:31:26;13.93;;;7.20;;
27201;SDS011;14717;46.924;15.474;2022-12-24T04:33:51;14.35;;;6.93;;
27201;SDS011;14717;46.924;15.474;2022-12-24T04:36:17;16.48;;;7.15;;
27201;SDS011;14717;46.924;15.474;2022-12-24T04:38:44;16.48;;;7.68;;
27201;SDS011;14717;46.924;15.474;2022-12-24T04:41:11;16.20;;;7.13;;
27201;SDS011;14717;46.924;15.474;2022-12-24T04:43:39;13.30;;;6.85;;
27201;SDS011;14717;46.924;15.474;2022-12-24T04:46:12;15.30;;;7.78;;
27201;SDS011;14717;46.924;15.474;2022-12-24T04:48:39;15.43;;;7.28;;
27201;SDS011;14717;46.924;15.474;2022-12-24T04:51:05;14.38;;;7.80;;
27201;SDS011;14717;46.924;15.474;2022-12-24T04:53:33;12.23;;;7.47;;
27201;SDS011;14717;46.924;15.474;2022-12-24T04:55:59;15.23;;;7.50;;
27201;SDS011;14717;46.924;15.474;2022-12-24T04:58:25;16.60;;;7.95;;
27201;SDS011;14717;46.924;15.474;2022-12-24T05:00:51;14.57;;;7.68;;
27201;SDS011;14717;46.924;15.474;2022-12-24T05:03:17;14.25;;;7.63;;
27201;SDS011;14717;46.924;15.474;2022-12-24T05:05:42;13.32;;;7.60;;
27201;SDS011;14717;46.924;15.474;2022-12-24T05:08:08;15.02;;;7.85;;
27201;SDS011;14717;46.924;15.474;2022-12-24T05:10:33;13.48;;;7.47;;
27201;SDS011;14717;46.924;15.474;2022-12-24T05:12:59;15.27;;;7.93;;
27201;SDS011;14717;46.924;15.474;2022-12-24T05:15:24;16.35;;;8.38;;
27201;SDS011;14717;46.924;15.474;2022-12-24T05:17:50;18.83;;;8.63;;
27201;SDS011;14717;46.924;15.474;2022-12-24T05:20:15;17.27;;;7.93;;
27201;SDS011;14717;46.924;15.474;2022-12-24T05:22:41;13.32;;;7.15;;
27201;SDS011;14717;46.924;15.474;2022-12-24T05:25:31;12.65;;;7.38;;
27201;SDS011;14717;46.924;15.474;2022-12-24T05:28:19;13.35;;;7.35;;
27201;SDS011;14717;46.924;15.474;2022-12-24T05:30:44;13.05;;;7.68;;
27201;SDS011;14717;46.924;15.474;2022-12-24T05:33:10;15.32;;;7.30;;
27201;SDS011;14717;46.924;15.474;2022-12-24T05:35:35;29.10;;;11.90;;
27201;SDS011;14717;46.924;15.474;2022-12-24T05:38:00;15.07;;;8.60;;
27201;SDS011;14717;46.924;15.474;2022-12-24T05:40:26;16.33;;;7.63;;
27201;SDS011;14717;46.924;15.474;2022-12-24T05:42:51;14.00;;;7.45;;
27201;SDS011;14717;46.924;15.474;2022-12-24T05:45:17;17.80;;;7.93;;
27201;SDS011;14717;46.924;15.474;2022-12-24T05:47:42;14.88;;;7.88;;
27201;SDS011;14717;46.924;15.474;2022-12-24T05:50:08;12.95;;;7.15;;
27201;SDS011;14717;46.924;15.474;2022-12-24T05:52:33;13.15;;;7.30;;
27201;SDS011;14717;46.924;15.474;2022-12-24T05:54:59;19.17;;;7.90;;
27201;SDS011;14717;46.924;15.474;2022-12-24T05:57:24;16.25;;;7.63;;
27201;SDS011;14717;46.924;15.474;2022-12-24T05:59:50;13.35;;;7.60;;
27201;SDS011;14717;46.924;15.474;2022-12-24T06:02:15;14.85;;;8.18;;
27201;SDS011;14717;46.924;15.474;2022-12-24T06:04:40;13.95;;;7.80;;
27201;SDS011;14717;46.924;15.474;2022-12-24T06:07:06;16.40;;;8.70;;
27201;SDS011;14717;46.924;15.474;2022-12-24T06:09:31;19.52;;;10.20;;
27201;SDS011;14717;46.924;15.474;2022-12-24T06:11:57;16.48;;;9.35;;
27201;SDS011;14717;46.924;15.474;2022-12-24T06:14:22;17.08;;;8.73;;
27201;SDS011;14717;46.924;15.474;2022-12-24T06:16:47;24.98;;;11.13;;
27201;SDS011;14717;46.924;15.474;2022-12-24T06:19:13;16.50;;;9.00;;
27201;SDS011;14717;46.924;15.474;2022-12-24T06:21:39;16.40;;;9.18;;
27201;SDS011;14717;46.924;15.474;2022-12-24T06:24:05;17.35;;;9.82;;
27201;SDS011;14717;46.924;15.474;2022-12-24T06:26:30;17.02;;;8.90;;
27201;SDS011;14717;46.924;15.474;2022-12-24T06:28:56;16.27;;;9.50;;
27201;SDS011;14717;46.924;15.474;2022-12-24T06:31:22;19.27;;;8.85;;
27201;SDS011;14717;46.924;15.474;2022-12-24T06:33:48;16.98;;;8.60;;
27201;SDS011;14717;46.924;15.474;2022-12-24T06:36:14;17.08;;;8.93;;
27201;SDS011;14717;46.924;15.474;2022-12-24T06:38:41;16.98;;;8.82;;
27201;SDS011;14717;46.924;15.474;2022-12-24T06:41:07;16.83;;;8.85;;
27201;SDS011;14717;46.924;15.474;2022-12-24T06:43:33;17.98;;;9.82;;
27201;SDS011;14717;46.924;15.474;2022-12-24T06:45:59;18.13;;;9.82;;
27201;SDS011;14717;46.924;15.474;2022-12-24T06:48:26;16.40;;;8.65;;
27201;SDS011;14717;46.924;15.474;2022-12-24T06:50:51;16.48;;;8.98;;
27201;SDS011;14717;46.924;15.474;2022-12-24T06:53:16;17.48;;;9.60;;
27201;SDS011;14717;46.924;15.474;2022-12-24T06:55:42;16.95;;;8.68;;
27201;SDS011;14717;46.924;15.474;2022-12-24T06:58:07;17.17;;;8.25;;
27201;SDS011;14717;46.924;15.474;2022-12-24T07:00:33;18.20;;;8.98;;
27201;SDS011;14717;46.924;15.474;2022-12-24T07:02:58;14.52;;;8.40;;
27201;SDS011;14717;46.924;15.474;2022-12-24T07:05:24;14.40;;;8.00;;
27201;SDS011;14717;46.924;15.474;2022-12-24T07:07:49;16.27;;;8.75;;
27201;SDS011;14717;46.924;15.474;2022-12-24T07:10:15;18.67;;;10.50;;
27201;SDS011;14717;46.924;15.474;2022-12-24T07:12:41;15.00;;;8.70;;
27201;SDS011;14717;46.924;15.474;2022-12-24T07:15:08;15.07;;;7.65;;
27201;SDS011;14717;46.924;15.474;2022-12-24T07:17:34;15.77;;;8.20;;
27201;SDS011;14717;46.924;15.474;2022-12-24T07:20:00;17.02;;;8.77;;
27201;SDS011;14717;46.924;15.474;2022-12-24T07:22:25;16.58;;;9.30;;
27201;SDS011;14717;46.924;15.474;2022-12-24T07:24:51;14.52;;;8.63;;
27201;SDS011;14717;46.924;15.474;2022-12-24T07:27:16;15.80;;;8.85;;
27201;SDS011;14717;46.924;15.474;2022-12-24T07:29:42;15.38;;;8.05;;
27201;SDS011;14717;46.924;15.474;2022-12-24T07:32:07;13.48;;;7.75;;
27201;SDS011;14717;46.924;15.474;2022-12-24T07:34:33;14.35;;;7.97;;
27201;SDS011;14717;46.924;15.474;2022-12-24T07:36:58;16.50;;;8.10;;
27201;SDS011;14717;46.924;15.474;2022-12-24T07:39:26;15.02;;;8.95;;
27201;SDS011;14717;46.924;15.474;2022-12-24T07:41:52;13.05;;;8.43;;
27201;SDS011;14717;46.924;15.474;2022-12-24T07:44:17;16.90;;;8.68;;
27201;SDS011;14717;46.924;15.474;2022-12-24T07:46:43;19.00;;;9.35;;
27201;SDS011;14717;46.924;15.474;2022-12-24T07:49:08;18.50;;;9.68;;
27201;SDS011;14717;46.924;15.474;2022-12-24T07:51:34;17.40;;;9.25;;
27201;SDS011;14717;46.924;15.474;2022-12-24T07:54:00;17.50;;;9.50;;
27201;SDS011;14717;46.924;15.474;2022-12-24T07:56:26;17.33;;;9.18;;
27201;SDS011;14717;46.924;15.474;2022-12-24T07:58:51;18.55;;;9.82;;
27201;SDS011;14717;46.924;15.474;2022-12-24T08:01:17;22.35;;;10.60;;
27201;SDS011;14717;46.924;15.474;2022-12-24T08:03:43;20.98;;;10.65;;
27201;SDS011;14717;46.924;15.474;2022-12-24T08:06:09;20.33;;;12.18;;
27201;SDS011;14717;46.924;15.474;2022-12-24T08:08:36;19.23;;;10.98;;
27201;SDS011;14717;46.924;15.474;2022-12-24T08:11:02;20.85;;;11.25;;
27201;SDS011;14717;46.924;15.474;2022-12-24T08:13:29;24.67;;;12.50;;
27201;SDS011;14717;46.924;15.474;2022-12-24T08:15:55;21.75;;;11.43;;
27201;SDS011;14717;46.924;15.474;2022-12-24T08:18:21;19.58;;;11.38;;
27201;SDS011;14717;46.924;15.474;2022-12-24T08:20:46;21.88;;;11.48;;
27201;SDS011;14717;46.924;15.474;2022-12-24T08:23:12;21.08;;;11.68;;
27201;SDS011;14717;46.924;15.474;2022-12-24T08:25:40;20.42;;;10.50;;
27201;SDS011;14717;46.924;15.474;2022-12-24T08:28:10;17.00;;;9.43;;
27201;SDS011;14717;46.924;15.474;2022-12-24T08:30:36;15.15;;;8.55;;
27201;SDS011;14717;46.924;15.474;2022-12-24T08:33:01;15.57;;;8.43;;
27201;SDS011;14717;46.924;15.474;2022-12-24T08:35:27;14.95;;;7.43;;
27201;SDS011;14717;46.924;15.474;2022-12-24T08:37:52;15.25;;;7.97;;
27201;SDS011;14717;46.924;15.474;2022-12-24T08:40:18;15.90;;;8.35;;
27201;SDS011;14717;46.924;15.474;2022-12-24T08:42:43;13.43;;;8.00;;
27201;SDS011;14717;46.924;15.474;2022-12-24T08:45:09;13.20;;;8.43;;
27201;SDS011;14717;46.924;15.474;2022-12-24T08:47:35;15.73;;;8.48;;
27201;SDS011;14717;46.924;15.474;2022-12-24T08:50:01;17.10;;;8.70;;
27201;SDS011;14717;46.924;15.474;2022-12-24T08:52:27;15.25;;;8.35;;
27201;SDS011;14717;46.924;15.474;2022-12-24T08:54:52;15.10;;;9.20;;
27201;SDS011;14717;46.924;15.474;2022-12-24T08:57:18;16.80;;;9.10;;
27201;SDS011;14717;46.924;15.474;2022-12-24T08:59:44;16.17;;;8.77;;
27201;SDS011;14717;46.924;15.474;2022-12-24T09:02:10;14.40;;;8.35;;
27201;SDS011;14717;46.924;15.474;2022-12-24T09:04:39;19.30;;;9.27;;
27201;SDS011;14717;46.924;15.474;2022-12-24T09:07:07;20.48;;;10.35;;
27201;SDS011;14717;46.924;15.474;2022-12-24T09:09:33;19.52;;;10.27;;
27201;SDS011;14717;46.924;15.474;2022-12-24T09:11:59;17.95;;;9.77;;
27201;SDS011;14717;46.924;15.474;2022-12-24T09:14:24;20.63;;;11.25;;
27201;SDS011;14717;46.924;15.474;2022-12-24T09:16:49;20.35;;;11.40;;
27201;SDS011;14717;46.924;15.474;2022-12-24T09:19:15;24.92;;;11.52;;
27201;SDS011;14717;46.924;15.474;2022-12-24T09:21:40;19.55;;;10.93;;
27201;SDS011;14717;46.924;15.474;2022-12-24T09:24:06;18.20;;;10.30;;
27201;SDS011;14717;46.924;15.474;2022-12-24T09:26:31;16.92;;;10.50;;
27201;SDS011;14717;46.924;15.474;2022-12-24T09:28:57;24.17;;;13.30;;
27201;SDS011;14717;46.924;15.474;2022-12-24T09:31:24;21.25;;;12.60;;
27201;SDS011;14717;46.924;15.474;2022-12-24T09:33:50;22.13;;;13.20;;
27201;SDS011;14717;46.924;15.474;2022-12-24T09:36:16;25.67;;;12.73;;
27201;SDS011;14717;46.924;15.474;2022-12-24T09:38:42;21.40;;;12.50;;
27201;SDS011;14717;46.924;15.474;2022-12-24T09:43:55;19.55;;;11.40;;
27201;SDS011;14717;46.924;15.474;2022-12-24T09:49:10;20.92;;;12.13;;
27201;SDS011;14717;46.924;15.474;2022-12-24T09:51:58;21.42;;;12.27;;
27201;SDS011;14717;46.924;15.474;2022-12-24T09:54:30;25.10;;;12.38;;
27201;SDS011;14717;46.924;15.474;2022-12-24T09:57:00;24.45;;;13.20;;
27201;SDS011;14717;46.924;15.474;2022-12-24T09:59:34;18.77;;;10.80;;
27201;SDS011;14717;46.924;15.474;2022-12-24T10:02:08;16.95;;;10.57;;
27201;SDS011;14717;46.924;15.474;2022-12-24T10:04:37;22.10;;;11.32;;
27201;SDS011;14717;46.924;15.474;2022-12-24T10:26:01;17.63;;;11.02;;
27201;SDS011;14717;46.924;15.474;2022-12-24T10:31:08;14.15;;;8.60;;
27201;SDS011;14717;46.924;15.474;2022-12-24T10:33:35;20.70;;;9.05;;
27201;SDS011;14717;46.924;15.474;2022-12-24T10:36:05;13.40;;;7.95;;
27201;SDS011;14717;46.924;15.474;2022-12-24T10:38:37;14.82;;;7.20;;
27201;SDS011;14717;46.924;15.474;2022-12-24T10:41:02;13.23;;;8.55;;
27201;SDS011;14717;46.924;15.474;2022-12-24T10:43:28;15.75;;;8.50;;
27201;SDS011;14717;46.924;15.474;2022-12-24T10:51:19;16.55;;;11.65;;
27201;SDS011;14717;46.924;15.474;2022-12-24T10:53:58;14.50;;;9.50;;
27201;SDS011;14717;46.924;15.474;2022-12-24T10:56:30;17.15;;;9.35;;
27201;SDS011;14717;46.924;15.474;2022-12-24T10:59:02;19.58;;;9.40;;
27201;SDS011;14717;46.924;15.474;2022-12-24T11:01:44;16.67;;;8.95;;
27201;SDS011;14717;46.924;15.474;2022-12-24T11:04:22;14.68;;;9.57;;
27201;SDS011;14717;46.924;15.474;2022-12-24T11:11:54;12.80;;;7.78;;
27201;SDS011;14717;46.924;15.474;2022-12-24T11:14:21;13.18;;;7.68;;
27201;SDS011;14717;46.924;15.474;2022-12-24T11:16:48;16.27;;;8.85;;
27201;SDS011;14717;46.924;15.474;2022-12-24T11:19:19;15.55;;;7.85;;
27201;SDS011;14717;46.924;15.474;2022-12-24T11:21:56;13.90;;;7.93;;
27201;SDS011;14717;46.924;15.474;2022-12-24T11:24:28;12.60;;;6.80;;
27201;SDS011;14717;46.924;15.474;2022-12-24T11:27:21;14.88;;;7.30;;
27201;SDS011;14717;46.924;15.474;2022-12-24T11:30:10;13.48;;;7.65;;
27201;SDS011;14717;46.924;15.474;2022-12-24T11:32:39;18.30;;;8.43;;
27201;SDS011;14717;46.924;15.474;2022-12-24T11:37:32;14.65;;;8.68;;
27201;SDS011;14717;46.924;15.474;2022-12-24T11:39:59;14.77;;;8.88;;
27201;SDS011;14717;46.924;15.474;2022-12-24T11:42:30;16.67;;;10.40;;
27201;SDS011;14717;46.924;15.474;2022-12-24T11:45:24;19.85;;;10.85;;
27201;SDS011;14717;46.924;15.474;2022-12-24T11:47:49;13.13;;;7.65;;
27201;SDS011;14717;46.924;15.474;2022-12-24T11:55:52;10.35;;;5.40;;
27201;SDS011;14717;46.924;15.474;2022-12-24T11:58:22;11.60;;;6.00;;
27201;SDS011;14717;46.924;15.474;2022-12-24T12:00:56;11.32;;;6.43;;
27201;SDS011;14717;46.924;15.474;2022-12-24T12:03:36;10.68;;;5.70;;
27201;SDS011;14717;46.924;15.474;2022-12-24T12:08:50;10.82;;;5.85;;
27201;SDS011;14717;46.924;15.474;2022-12-24T12:11:20;9.20;;;5.32;;
27201;SDS011;14717;46.924;15.474;2022-12-24T12:13:47;11.80;;;5.90;;
27201;SDS011;14717;46.924;15.474;2022-12-24T12:16:16;10.05;;;5.80;;
27201;SDS011;14717;46.924;15.474;2022-12-24T12:18:52;10.68;;;5.82;;
27201;SDS011;14717;46.924;15.474;2022-12-24T12:21:31;9.20;;;5.70;;
27201;SDS011;14717;46.924;15.474;2022-12-24T12:24:18;10.68;;;6.32;;
27201;SDS011;14717;46.924;15.474;2022-12-24T12:26:53;10.70;;;6.55;;
27201;SDS011;14717;46.924;15.474;2022-12-24T12:32:02;11.35;;;5.68;;
27201;SDS011;14717;46.924;15.474;2022-12-24T12:34:50;11.45;;;6.05;;
27201;SDS011;14717;46.924;15.474;2022-12-24T12:37:39;9.95;;;6.13;;
27201;SDS011;14717;46.924;15.474;2022-12-24T12:40:15;11.13;;;6.13;;
27201;SDS011;14717;46.924;15.474;2022-12-24T12:43:06;11.85;;;7.25;;
27201;SDS011;14717;46.924;15.474;2022-12-24T12:48:14;16.38;;;8.55;;
27201;SDS011;14717;46.924;15.474;2022-12-24T12:56:42;13.90;;;8.38;;
27201;SDS011;14717;46.924;15.474;2022-12-24T13:12:49;15.70;;;8.25;;
27201;SDS011;14717;46.924;15.474;2022-12-24T13:15:32;16.40;;;8.32;;
27201;SDS011;14717;46.924;15.474;2022-12-24T13:21:03;19.35;;;9.43;;
27201;SDS011;14717;46.924;15.474;2022-12-24T13:23:28;15.30;;;8.00;;
27201;SDS011;14717;46.924;15.474;2022-12-24T13:25:55;16.08;;;8.32;;
27201;SDS011;14717;46.924;15.474;2022-12-24T13:31:30;13.37;;;8.13;;
27201;SDS011;14717;46.924;15.474;2022-12-24T13:33:48;15.35;;;8.10;;
27201;SDS011;14717;46.924;15.474;2022-12-24T13:36:17;16.88;;;8.77;;
27201;SDS011;14717;46.924;15.474;2022-12-24T13:41:57;16.33;;;8.90;;
27201;SDS011;14717;46.924;15.474;2022-12-24T13:49:38;15.27;;;8.55;;
27201;SDS011;14717;46.924;15.474;2022-12-24T13:54:39;13.43;;;7.88;;
27201;SDS011;14717;46.924;15.474;2022-12-24T13:59:52;16.17;;;8.13;;
27201;SDS011;14717;46.924;15.474;2022-12-24T14:02:23;12.75;;;7.65;;
27201;SDS011;14717;46.924;15.474;2022-12-24T14:04:50;15.27;;;7.38;;
27201;SDS011;14717;46.924;15.474;2022-12-24T14:07:17;13.40;;;7.70;;
27201;SDS011;14717;46.924;15.474;2022-12-24T14:09:47;13.40;;;7.20;;
27201;SDS011;14717;46.924;15.474;2022-12-24T14:12:15;11.88;;;7.30;;
27201;SDS011;14717;46.924;15.474;2022-12-24T14:14:57;12.48;;;6.90;;
27201;SDS011;14717;46.924;15.474;2022-12-24T14:17:26;13.90;;;7.13;;
27201;SDS011;14717;46.924;15.474;2022-12-24T14:19:57;12.88;;;7.25;;
27201;SDS011;14717;46.924;15.474;2022-12-24T14:22:26;12.20;;;7.55;;
27201;SDS011;14717;46.924;15.474;2022-12-24T14:24:58;15.25;;;7.45;;
27201;SDS011;14717;46.924;15.474;2022-12-24T14:27:32;12.90;;;7.70;;
27201;SDS011;14717;46.924;15.474;2022-12-24T14:30:04;13.07;;;6.93;;
27201;SDS011;14717;46.924;15.474;2022-12-24T14:32:40;14.18;;;7.60;;
27201;SDS011;14717;46.924;15.474;2022-12-24T14:37:34;12.00;;;7.35;;
27201;SDS011;14717;46.924;15.474;2022-12-24T14:39:59;14.15;;;7.85;;
27201;SDS011;14717;46.924;15.474;2022-12-24T14:42:40;16.25;;;8.48;;
27201;SDS011;14717;46.924;15.474;2022-12-24T14:48:12;12.80;;;7.75;;
27201;SDS011;14717;46.924;15.474;2022-12-24T14:56:15;14.70;;;8.02;;
27201;SDS011;14717;46.924;15.474;2022-12-24T14:58:44;17.95;;;8.48;;
27201;SDS011;14717;46.924;15.474;2022-12-24T15:01:18;20.77;;;10.65;;
27201;SDS011;14717;46.924;15.474;2022-12-24T15:03:44;19.33;;;10.07;;
27201;SDS011;14717;46.924;15.474;2022-12-24T15:06:10;21.23;;;9.88;;
27201;SDS011;14717;46.924;15.474;2022-12-24T15:11:15;30.08;;;17.55;;
27201;SDS011;14717;46.924;15.474;2022-12-24T15:13:45;28.95;;;16.65;;
27201;SDS011;14717;46.924;15.474;2022-12-24T15:16:17;31.80;;;16.48;;
27201;SDS011;14717;46.924;15.474;2022-12-24T15:18:47;28.52;;;15.85;;
27201;SDS011;14717;46.924;15.474;2022-12-24T15:21:38;27.45;;;13.77;;
27201;SDS011;14717;46.924;15.474;2022-12-24T15:26:53;24.70;;;12.32;;
27201;SDS011;14717;46.924;15.474;2022-12-24T15:29:21;20.80;;;11.43;;
27201;SDS011;14717;46.924;15.474;2022-12-24T15:31:58;27.45;;;11.57;;
27201;SDS011;14717;46.924;15.474;2022-12-24T15:36:59;24.75;;;11.50;;
27201;SDS011;14717;46.924;15.474;2022-12-24T15:39:27;19.50;;;10.82;;
27201;SDS011;14717;46.924;15.474;2022-12-24T15:41:52;18.65;;;10.70;;
27201;SDS011;14717;46.924;15.474;2022-12-24T15:44:36;21.50;;;10.98;;
27201;SDS011;14717;46.924;15.474;2022-12-24T15:47:05;22.83;;;13.23;;
27201;SDS011;14717;46.924;15.474;2022-12-24T15:49:33;29.88;;;15.00;;
27201;SDS011;14717;46.924;15.474;2022-12-24T15:52:12;25.60;;;12.90;;
27201;SDS011;14717;46.924;15.474;2022-12-24T15:54:45;23.02;;;12.52;;
27201;SDS011;14717;46.924;15.474;2022-12-24T15:57:22;20.60;;;11.00;;
27201;SDS011;14717;46.924;15.474;2022-12-24T15:59:52;18.15;;;10.73;;
27201;SDS011;14717;46.924;15.474;2022-12-24T16:02:24;19.63;;;11.05;;
27201;SDS011;14717;46.924;15.474;2022-12-24T16:05:23;21.95;;;11.20;;
27201;SDS011;14717;46.924;15.474;2022-12-24T16:10:34;19.13;;;11.02;;
27201;SDS011;14717;46.924;15.474;2022-12-24T16:13:08;20.27;;;10.95;;
27201;SDS011;14717;46.924;15.474;2022-12-24T16:16:29;23.85;;;12.32;;
27201;SDS011;14717;46.924;15.474;2022-12-24T16:18:37;23.08;;;11.63;;
27201;SDS011;14717;46.924;15.474;2022-12-24T16:21:06;22.83;;;12.13;;
27201;SDS011;14717;46.924;15.474;2022-12-24T16:23:43;24.23;;;12.13;;
27201;SDS011;14717;46.924;15.474;2022-12-24T16:26:11;24.02;;;12.27;;
27201;SDS011;14717;46.924;15.474;2022-12-24T16:28:36;21.75;;;11.52;;
27201;SDS011;14717;46.924;15.474;2022-12-24T16:31:02;15.93;;;9.27;;
27201;SDS011;14717;46.924;15.474;2022-12-24T16:33:27;17.48;;;9.85;;
27201;SDS011;14717;46.924;15.474;2022-12-24T16:35:53;12.73;;;6.50;;
27201;SDS011;14717;46.924;15.474;2022-12-24T16:38:20;15.65;;;7.22;;
27201;SDS011;14717;46.924;15.474;2022-12-24T16:40:45;11.82;;;6.50;;
27201;SDS011;14717;46.924;15.474;2022-12-24T16:43:11;14.45;;;7.90;;
27201;SDS011;14717;46.924;15.474;2022-12-24T16:46:02;14.70;;;7.05;;
27201;SDS011;14717;46.924;15.474;2022-12-24T16:48:29;14.48;;;7.35;;
27201;SDS011;14717;46.924;15.474;2022-12-24T16:50:57;12.18;;;6.85;;
27201;SDS011;14717;46.924;15.474;2022-12-24T16:53:26;19.40;;;10.30;;